Onagoity, Argentina
Current Conditions -  °F | °C
As of 6:00 AM on Sunday 23 Nov 2014 (Local Time) from SAOC Reporting Station
Clear Clear  
Wind Chill: 59°   Ceiling: Unl
Heat Index: 59°   Visibility: 6mi
Dew Point: 50°   Wind: 7mph
Humidity: 72%   Direction: 320°NW
Pressure: 29.83"   Gusts: NA
Location:  34.78°S, 63.67°W
Report Text: SAOC 230900Z 32006KT CAVOK 15/10 Q1010
Loading
Personal Weather Stations






























Interactive Weather Map New forecast layout! Learn more

10-Day Weather Forecast

Advertisements
Track Severe Weather on mobile